Austonio, Texas
Current Conditions -  °F | °C
As of 9:55 AM on Thursday 29 Jan 2015 (Local Time) from KDKR Reporting Station
Scattered Clouds Scattered Clouds  
Wind Chill: 64°   Ceiling: Unl
Heat Index: 64°   Visibility: 10mi
Dew Point: 61°   Wind: 10mph
Humidity: 88%   Direction: 240°WSW
Pressure: 30.27"   Gusts: NA
Location:  31.2828°N, 95.4821°W
Report Text: KDKR 291555Z AUTO 24009KT 10SM SCT009 18/16 A3027 RMK AO2
Loading
Personal Weather Stations






























Interactive Weather Map New forecast layout! Learn more

10-Day Weather Forecast

Advertisements
Track Severe Weather on mobile